Time;durP1;ratioP1;P1;durP2;ratioP2;P2;SDS_P1;SDS_P2;PMS_P1;PMS_P2;Temp;Humidity;BMP_temperature;BMP_pressure;BME280_temperature;BME280_humidity;BME280_pressure;Samples;Min_cycle;Max_cycle;Signal;HPM_P1;HPM_P2
2024/01/30 00:00:39;;;;;;;0.60;0.60;;;4.20;99.90;;;;;;4420239;32;20077;-61
2024/01/30 00:03:05;;;;;;;0.60;0.60;;;4.20;99.90;;;;;;4408409;32;20438;-64
2024/01/30 00:05:30;;;;;;;0.70;0.70;;;4.20;99.90;;;;;;4421532;32;20077;-65
2024/01/30 00:07:56;;;;;;;0.62;0.62;;;4.00;99.90;;;;;;4417784;32;20514;-62
2024/01/30 00:10:21;;;;;;;0.98;0.93;;;4.10;99.90;;;;;;4418547;32;20098;-63
2024/01/30 00:12:47;;;;;;;2.62;0.85;;;4.10;99.90;;;;;;4417461;32;20082;-63
2024/01/30 00:15:12;;;;;;;0.57;0.57;;;4.10;99.90;;;;;;4417929;32;20120;-62
2024/01/30 00:17:38;;;;;;;1.95;0.80;;;4.20;99.90;;;;;;4420486;32;20086;-62
2024/01/30 00:20:05;;;;;;;0.75;0.75;;;4.30;99.90;;;;;;4422610;32;20085;-63
2024/01/30 00:22:31;;;;;;;4.50;1.55;;;4.30;99.90;;;;;;4420652;32;20548;-62
2024/01/30 00:24:57;;;;;;;1.27;1.02;;;4.20;99.90;;;;;;4420510;32;20069;-62
2024/01/30 00:27:22;;;;;;;0.70;0.70;;;4.10;99.90;;;;;;4417073;32;20148;-63
2024/01/30 00:29:48;;;;;;;0.40;0.40;;;4.00;99.90;;;;;;4416579;32;20071;-62
2024/01/30 00:32:13;;;;;;;0.50;0.50;;;4.10;99.90;;;;;;4415993;32;20073;-62
2024/01/30 00:34:39;;;;;;;1.75;0.90;;;4.20;99.90;;;;;;4418397;32;20495;-64
2024/01/30 00:37:04;;;;;;;0.35;0.35;;;4.10;99.90;;;;;;4419346;32;20093;-64
2024/01/30 00:39:30;;;;;;;0.52;0.52;;;4.10;99.90;;;;;;4418392;32;20090;-62
2024/01/30 00:41:55;;;;;;;0.57;0.57;;;4.10;99.90;;;;;;4402879;32;20485;-66
2024/01/30 00:44:20;;;;;;;0.50;0.50;;;4.20;99.90;;;;;;4412666;32;20061;-65
2024/01/30 00:46:46;;;;;;;0.30;0.30;;;4.10;99.90;;;;;;4418588;32;20078;-66
2024/01/30 00:49:12;;;;;;;0.55;0.55;;;4.10;99.90;;;;;;4419614;32;20098;-66
2024/01/30 00:51:37;;;;;;;0.40;0.40;;;4.10;99.90;;;;;;4415254;32;20077;-65
2024/01/30 00:54:02;;;;;;;0.60;0.60;;;4.00;99.90;;;;;;4417684;32;20145;-66
2024/01/30 00:56:28;;;;;;;0.65;0.65;;;4.00;99.90;;;;;;4418512;32;20402;-65
2024/01/30 00:58:54;;;;;;;0.70;0.70;;;4.00;99.90;;;;;;4418170;32;21154;-65
2024/01/30 01:01:19;;;;;;;0.73;0.70;;;3.80;99.90;;;;;;4416740;32;20093;-65
2024/01/30 01:03:45;;;;;;;0.50;0.50;;;3.80;99.90;;;;;;4420483;32;20713;-66
2024/01/30 01:06:10;;;;;;;1.42;1.33;;;3.80;99.90;;;;;;4419305;32;21386;-65
2024/01/30 01:08:36;;;;;;;1.55;1.10;;;3.80;99.90;;;;;;4421292;32;20546;-65
2024/01/30 01:11:03;;;;;;;0.30;0.30;;;3.70;99.90;;;;;;4418124;32;20065;-66
2024/01/30 01:13:28;;;;;;;0.40;0.40;;;3.80;99.90;;;;;;4419295;32;20073;-67
2024/01/30 01:15:54;;;;;;;0.43;0.43;;;3.80;99.90;;;;;;4415844;32;20545;-64
2024/01/30 01:18:20;;;;;;;0.93;0.93;;;3.70;99.90;;;;;;4417970;32;20089;-65
2024/01/30 01:20:45;;;;;;;0.62;0.62;;;3.60;99.90;;;;;;4417464;32;20076;-65
2024/01/30 01:23:11;;;;;;;0.85;0.85;;;3.60;99.90;;;;;;4414532;32;20065;-64
2024/01/30 01:25:36;;;;;;;11.93;1.25;;;3.60;99.90;;;;;;4417248;32;20588;-65
2024/01/30 01:28:03;;;;;;;0.62;0.62;;;3.60;99.90;;;;;;4421140;32;20057;-65
2024/01/30 01:30:29;;;;;;;1.80;1.70;;;3.70;99.90;;;;;;4420515;32;20451;-65
2024/01/30 01:32:54;;;;;;;0.75;0.75;;;3.80;99.90;;;;;;4417604;32;20081;-65
2024/01/30 01:35:23;;;;;;;3.25;1.55;;;3.80;99.90;;;;;;4414972;32;20078;-65
2024/01/30 01:37:54;;;;;;;0.43;0.43;;;3.70;99.90;;;;;;4420512;32;20483;-65
2024/01/30 01:40:22;;;;;;;0.93;0.93;;;3.60;99.90;;;;;;4416183;32;20081;-65
2024/01/30 01:42:50;;;;;;;0.68;0.68;;;3.70;99.90;;;;;;4402290;32;20115;-64
2024/01/30 01:45:15;;;;;;;2.05;1.00;;;3.70;99.90;;;;;;4404152;32;20069;-65
2024/01/30 01:47:42;;;;;;;1.45;1.25;;;3.80;99.90;;;;;;4419260;32;20188;-64
2024/01/30 01:50:08;;;;;;;0.98;0.98;;;3.70;99.90;;;;;;4419482;32;20085;-65
2024/01/30 01:52:34;;;;;;;1.02;0.82;;;3.70;99.90;;;;;;4414336;32;20438;-64
2024/01/30 01:54:59;;;;;;;0.82;0.82;;;3.70;99.90;;;;;;4406339;32;20092;-64
2024/01/30 01:57:25;;;;;;;0.57;0.57;;;3.70;99.90;;;;;;4419882;32;20555;-64
2024/01/30 01:59:50;;;;;;;0.73;0.73;;;3.60;99.90;;;;;;4416975;32;20085;-64
2024/01/30 02:02:19;;;;;;;1.37;0.90;;;3.50;99.90;;;;;;4419643;32;20085;-64
2024/01/30 02:04:45;;;;;;;1.00;0.90;;;3.50;99.90;;;;;;4418408;32;20088;-64
2024/01/30 02:07:11;;;;;;;2.55;1.37;;;3.40;99.90;;;;;;4402093;32;20118;-64
2024/01/30 02:09:36;;;;;;;0.45;0.45;;;3.40;99.90;;;;;;4404623;32;20873;-64
2024/01/30 02:12:02;;;;;;;0.40;0.40;;;3.50;99.90;;;;;;4415939;32;20089;-64
2024/01/30 02:14:27;;;;;;;0.80;0.80;;;3.50;99.90;;;;;;4414471;32;20085;-66
2024/01/30 02:16:53;;;;;;;0.50;0.50;;;3.70;99.90;;;;;;4417428;32;20054;-65
2024/01/30 02:19:19;;;;;;;0.80;0.80;;;3.70;99.90;;;;;;4420225;32;21192;-65
2024/01/30 02:21:46;;;;;;;0.95;0.95;;;3.70;99.90;;;;;;4414332;32;20057;-66
2024/01/30 02:24:11;;;;;;;0.98;0.70;;;3.60;99.90;;;;;;4415655;32;20581;-66
2024/01/30 02:26:36;;;;;;;0.60;0.60;;;3.60;99.90;;;;;;4417958;32;20129;-64
2024/01/30 02:29:02;;;;;;;0.95;0.80;;;3.70;99.90;;;;;;4419076;32;20082;-64
2024/01/30 02:31:27;;;;;;;0.40;0.40;;;3.70;99.90;;;;;;4417864;32;20145;-65
2024/01/30 02:33:53;;;;;;;5.18;1.98;;;3.70;99.90;;;;;;4423760;32;20085;-64
2024/01/30 02:36:18;;;;;;;0.75;0.62;;;3.70;99.90;;;;;;4417835;32;20072;-66
2024/01/30 02:38:46;;;;;;;2.72;2.05;;;3.60;99.90;;;;;;4416191;32;20085;-66
2024/01/30 02:41:11;;;;;;;0.82;0.82;;;3.60;99.90;;;;;;4417113;32;20140;-66
2024/01/30 02:43:37;;;;;;;0.45;0.45;;;3.70;99.90;;;;;;4418994;32;20088;-62
2024/01/30 02:46:02;;;;;;;0.55;0.55;;;3.60;99.90;;;;;;4420051;32;20082;-66
2024/01/30 02:48:28;;;;;;;1.20;0.70;;;3.60;99.90;;;;;;4423010;32;20066;-63
2024/01/30 02:50:53;;;;;;;0.45;0.45;;;3.70;99.90;;;;;;4419052;32;20073;-61
2024/01/30 02:53:19;;;;;;;0.93;0.80;;;3.80;99.90;;;;;;4402704;32;20077;-62
2024/01/30 02:55:44;;;;;;;0.62;0.62;;;3.70;99.90;;;;;;4417515;32;20135;-60
2024/01/30 02:58:10;;;;;;;1.27;1.17;;;3.70;99.90;;;;;;4416855;32;20466;-63
2024/01/30 03:00:35;;;;;;;0.77;0.77;;;3.70;99.90;;;;;;4416792;32;20126;-62
2024/01/30 03:03:01;;;;;;;0.70;0.70;;;3.60;99.90;;;;;;4419829;32;20061;-62
2024/01/30 03:05:27;;;;;;;0.70;0.70;;;3.60;99.90;;;;;;4416592;32;20632;-63
2024/01/30 03:07:52;;;;;;;1.23;0.88;;;3.60;99.90;;;;;;4416677;32;20142;-63
2024/01/30 03:10:18;;;;;;;0.55;0.55;;;3.70;99.90;;;;;;4416739;32;20094;-63
2024/01/30 03:12:44;;;;;;;0.60;0.60;;;3.70;99.90;;;;;;4415103;32;20509;-65
2024/01/30 03:15:09;;;;;;;0.88;0.88;;;3.60;99.90;;;;;;4420447;32;20089;-63
2024/01/30 03:17:36;;;;;;;1.42;1.05;;;3.40;99.90;;;;;;4417660;32;20517;-63
2024/01/30 03:20:03;;;;;;;1.17;1.08;;;3.40;99.90;;;;;;4420104;32;20081;-61
2024/01/30 03:22:29;;;;;;;1.15;1.00;;;3.40;99.90;;;;;;4416200;32;20560;-63
2024/01/30 03:24:54;;;;;;;1.00;0.98;;;3.60;99.90;;;;;;4420716;32;20220;-62
2024/01/30 03:27:20;;;;;;;0.85;0.77;;;3.50;99.90;;;;;;4418159;32;20099;-63
2024/01/30 03:29:45;;;;;;;3.55;1.75;;;3.30;99.90;;;;;;4417909;32;20738;-63
2024/01/30 03:32:10;;;;;;;0.73;0.73;;;3.40;99.90;;;;;;4424192;32;20656;-63
2024/01/30 03:34:36;;;;;;;0.65;0.65;;;3.30;99.90;;;;;;4425459;32;20084;-64
2024/01/30 03:37:01;;;;;;;0.68;0.68;;;3.40;99.90;;;;;;4428751;32;20073;-61
2024/01/30 03:39:27;;;;;;;0.62;0.62;;;3.40;99.90;;;;;;4416449;32;20143;-61
2024/01/30 03:41:52;;;;;;;1.30;1.20;;;3.30;99.90;;;;;;4418873;32;20081;-62
2024/01/30 03:44:18;;;;;;;0.52;0.52;;;3.20;99.90;;;;;;4418255;32;20132;-61
2024/01/30 03:46:43;;;;;;;0.57;0.57;;;3.20;99.90;;;;;;4421401;32;20090;-61
2024/01/30 03:49:09;;;;;;;0.60;0.55;;;3.10;99.90;;;;;;4409276;32;20136;-62
2024/01/30 03:51:35;;;;;;;1.95;0.95;;;3.10;99.90;;;;;;4420803;32;20072;-62
2024/01/30 03:54:00;;;;;;;0.82;0.82;;;3.00;99.90;;;;;;4421111;32;20081;-62
2024/01/30 03:56:26;;;;;;;10.60;0.98;;;3.00;99.90;;;;;;4422094;32;20086;-61
2024/01/30 03:58:51;;;;;;;0.98;0.98;;;2.90;99.90;;;;;;4416300;32;20085;-62
2024/01/30 04:01:17;;;;;;;0.70;0.70;;;2.90;99.90;;;;;;4404390;32;20077;-62
2024/01/30 04:03:43;;;;;;;0.50;0.50;;;3.00;99.90;;;;;;4417102;32;20077;-62
2024/01/30 04:06:09;;;;;;;0.52;0.52;;;3.00;99.90;;;;;;4419923;32;20076;-63
2024/01/30 04:08:34;;;;;;;1.20;0.93;;;3.00;99.90;;;;;;4420501;32;20169;-64
2024/01/30 04:11:06;;;;;;;0.60;0.60;;;3.20;99.90;;;;;;4404956;32;20097;-62
2024/01/30 04:13:32;;;;;;;0.43;0.43;;;3.30;99.90;;;;;;4420296;32;20133;-62
2024/01/30 04:15:59;;;;;;;1.33;1.00;;;3.30;99.90;;;;;;4404954;32;20082;-62
2024/01/30 04:18:25;;;;;;;0.60;0.60;;;3.40;99.90;;;;;;4419687;32;20105;-62
2024/01/30 04:20:50;;;;;;;0.47;0.47;;;3.50;99.90;;;;;;4423125;32;20113;-63
2024/01/30 04:23:16;;;;;;;0.80;0.80;;;3.60;99.90;;;;;;4418145;32;20128;-62
2024/01/30 04:25:41;;;;;;;1.80;1.40;;;3.60;99.90;;;;;;4398594;32;20089;-62
2024/01/30 04:28:07;;;;;;;0.47;0.47;;;3.60;99.90;;;;;;4423754;32;20729;-62
2024/01/30 04:30:32;;;;;;;0.70;0.70;;;3.30;99.90;;;;;;4422249;32;20081;-62
2024/01/30 04:32:58;;;;;;;3.90;2.25;;;3.10;99.90;;;;;;4416936;32;20200;-62
2024/01/30 04:35:24;;;;;;;0.90;0.90;;;3.00;99.90;;;;;;4418528;32;20415;-62
2024/01/30 04:37:51;;;;;;;0.77;0.77;;;3.10;99.90;;;;;;4417006;32;20549;-62
2024/01/30 04:40:17;;;;;;;0.77;0.77;;;3.10;99.90;;;;;;4408432;32;20569;-63
2024/01/30 04:42:42;;;;;;;3.03;1.80;;;3.20;99.90;;;;;;4417756;32;20078;-62
2024/01/30 04:45:08;;;;;;;0.43;0.43;;;3.10;99.90;;;;;;4420392;32;20513;-63
2024/01/30 04:47:34;;;;;;;3.30;0.93;;;3.00;99.90;;;;;;4415977;32;20093;-63
2024/01/30 04:49:59;;;;;;;1.42;1.33;;;2.90;99.90;;;;;;4418242;32;20473;-64
2024/01/30 04:52:25;;;;;;;0.37;0.37;;;3.00;99.90;;;;;;4422908;32;20077;-61
2024/01/30 04:54:50;;;;;;;1.42;0.85;;;3.00;99.90;;;;;;4417470;32;20069;-62
2024/01/30 04:57:15;;;;;;;29.90;0.90;;;3.10;99.90;;;;;;4418436;32;20132;-62
2024/01/30 04:59:41;;;;;;;0.57;0.57;;;3.20;99.90;;;;;;4415974;32;20090;-61
2024/01/30 05:02:07;;;;;;;0.32;0.32;;;3.20;99.90;;;;;;4421404;32;20546;-63
2024/01/30 05:04:32;;;;;;;0.52;0.52;;;3.20;99.90;;;;;;4400960;32;20529;-65
2024/01/30 05:06:58;;;;;;;2.12;1.58;;;3.20;99.90;;;;;;4416745;32;20103;-65
2024/01/30 05:09:23;;;;;;;1.12;1.05;;;3.20;99.90;;;;;;4416857;32;20669;-65
2024/01/30 05:11:49;;;;;;;2.37;1.67;;;3.20;99.90;;;;;;4417668;32;20062;-65
2024/01/30 05:14:15;;;;;;;0.90;0.90;;;3.40;99.90;;;;;;4417069;32;20102;-65
2024/01/30 05:16:41;;;;;;;0.55;0.55;;;3.40;99.90;;;;;;4418221;32;20082;-65
2024/01/30 05:19:06;;;;;;;0.93;0.93;;;3.30;99.90;;;;;;4419188;32;20484;-65
2024/01/30 05:21:32;;;;;;;3.35;1.67;;;3.10;99.90;;;;;;4412610;32;20070;-65
2024/01/30 05:23:58;;;;;;;1.40;1.30;;;3.00;99.90;;;;;;4417629;32;20534;-63
2024/01/30 05:26:24;;;;;;;0.65;0.65;;;2.90;99.90;;;;;;4420430;32;20089;-64
2024/01/30 05:28:49;;;;;;;2.05;1.10;;;2.90;99.90;;;;;;4417269;32;20073;-63
2024/01/30 05:31:15;;;;;;;1.25;1.15;;;2.90;99.90;;;;;;4419584;32;20070;-63
2024/01/30 05:33:40;;;;;;;1.10;0.80;;;2.90;99.90;;;;;;4417591;32;20172;-63
2024/01/30 05:36:06;;;;;;;0.50;0.50;;;3.10;99.90;;;;;;4421060;32;20065;-63
2024/01/30 05:38:32;;;;;;;0.40;0.40;;;3.10;99.90;;;;;;4423196;32;20092;-62
2024/01/30 05:40:58;;;;;;;0.88;0.88;;;3.20;99.90;;;;;;4405067;32;20139;-63
2024/01/30 05:43:24;;;;;;;0.47;0.47;;;3.30;99.90;;;;;;4417761;32;20505;-62
2024/01/30 05:45:50;;;;;;;0.70;0.70;;;3.40;99.90;;;;;;4420013;32;20085;-62
2024/01/30 05:48:15;;;;;;;0.80;0.80;;;3.40;99.90;;;;;;4422661;32;20120;-62
2024/01/30 05:50:41;;;;;;;0.85;0.85;;;3.30;99.90;;;;;;4419124;32;20085;-63
2024/01/30 05:53:06;;;;;;;0.40;0.40;;;3.30;99.90;;;;;;4415915;32;20168;-68
2024/01/30 05:55:32;;;;;;;2.25;0.80;;;3.30;99.90;;;;;;4417402;32;20069;-64
2024/01/30 05:57:57;;;;;;;2.22;0.80;;;3.30;99.90;;;;;;4419126;32;20081;-63
2024/01/30 06:00:23;;;;;;;0.50;0.50;;;3.30;99.90;;;;;;4415841;32;20077;-63
2024/01/30 06:02:48;;;;;;;0.40;0.40;;;3.20;99.90;;;;;;4414328;32;20546;-63
2024/01/30 06:05:14;;;;;;;0.30;0.30;;;3.10;99.90;;;;;;4415869;32;20073;-62
2024/01/30 06:07:39;;;;;;;1.08;0.95;;;3.10;99.90;;;;;;4404274;32;20081;-63
2024/01/30 06:10:06;;;;;;;0.75;0.75;;;3.10;99.90;;;;;;4415504;32;20086;-63
2024/01/30 06:12:32;;;;;;;0.32;0.32;;;3.10;99.90;;;;;;4413297;32;20396;-68
2024/01/30 06:14:58;;;;;;;0.55;0.55;;;3.10;99.90;;;;;;4406452;32;20085;-66
2024/01/30 06:17:23;;;;;;;0.62;0.62;;;3.20;99.90;;;;;;4419412;32;20085;-65
2024/01/30 06:19:49;;;;;;;0.90;0.90;;;3.30;99.90;;;;;;4398901;32;20180;-66
2024/01/30 06:22:16;;;;;;;3.70;1.08;;;3.20;99.90;;;;;;4392360;32;20439;-65
2024/01/30 06:24:41;;;;;;;0.68;0.68;;;3.20;99.90;;;;;;4400422;32;20082;-65
2024/01/30 06:27:07;;;;;;;0.50;0.50;;;3.10;99.90;;;;;;4393443;32;20106;-65
2024/01/30 06:29:33;;;;;;;0.52;0.52;;;3.20;99.90;;;;;;4409909;32;20077;-65
2024/01/30 06:31:59;;;;;;;1.23;1.12;;;3.10;99.90;;;;;;4408898;32;20455;-65
2024/01/30 06:34:26;;;;;;;0.40;0.40;;;3.10;99.90;;;;;;4397412;32;20236;-65
2024/01/30 06:36:51;;;;;;;0.35;0.35;;;3.00;99.90;;;;;;4410437;32;20564;-66
2024/01/30 06:39:17;;;;;;;0.50;0.50;;;3.00;99.90;;;;;;4414681;32;21564;-66
2024/01/30 06:41:43;;;;;;;0.90;0.90;;;3.00;99.90;;;;;;4414261;32;21138;-65
2024/01/30 06:44:09;;;;;;;2.05;1.40;;;3.00;99.90;;;;;;4414290;32;20095;-65
2024/01/30 06:46:35;;;;;;;2.37;1.00;;;3.00;99.90;;;;;;4409295;32;20120;-68
2024/01/30 06:49:01;;;;;;;0.50;0.50;;;3.00;99.90;;;;;;4398961;32;20384;-67
2024/01/30 06:51:26;;;;;;;0.40;0.40;;;3.10;99.90;;;;;;4398657;32;20593;-66
2024/01/30 06:53:52;;;;;;;0.60;0.60;;;3.10;99.90;;;;;;4391681;32;20076;-67
2024/01/30 06:56:20;;;;;;;0.50;0.50;;;3.20;99.90;;;;;;4391101;32;20203;-67
2024/01/30 06:58:47;;;;;;;0.30;0.30;;;3.30;99.90;;;;;;4388193;32;20533;-66
2024/01/30 07:01:14;;;;;;;0.60;0.60;;;3.40;99.90;;;;;;4378372;32;21321;-66
2024/01/30 07:03:39;;;;;;;3.10;1.65;;;3.30;99.90;;;;;;4386122;32;20097;-66
2024/01/30 07:06:05;;;;;;;1.48;0.88;;;3.30;99.90;;;;;;4387780;32;20074;-66
2024/01/30 07:08:30;;;;;;;0.60;0.60;;;3.30;99.90;;;;;;4380579;32;20110;-66
2024/01/30 07:10:56;;;;;;;0.37;0.37;;;3.30;99.90;;;;;;4375829;32;20490;-65
2024/01/30 07:13:21;;;;;;;0.40;0.40;;;3.30;99.90;;;;;;4394272;32;20077;-67
2024/01/30 07:15:47;;;;;;;0.52;0.52;;;3.30;99.90;;;;;;4390680;32;20096;-66
2024/01/30 07:18:13;;;;;;;0.40;0.40;;;3.20;99.90;;;;;;4394043;32;20094;-67
2024/01/30 07:20:45;;;;;;;0.57;0.57;;;3.20;99.90;;;;;;4391052;32;20077;-66
2024/01/30 07:23:13;;;;;;;0.40;0.40;;;3.20;99.90;;;;;;4387446;32;20094;-62
2024/01/30 07:25:41;;;;;;;1.60;1.08;;;3.20;99.90;;;;;;4379701;32;21150;-63
2024/01/30 07:28:07;;;;;;;0.47;0.47;;;3.30;99.90;;;;;;4382968;32;20082;-63
2024/01/30 07:30:32;;;;;;;0.40;0.40;;;3.30;99.90;;;;;;4397395;32;20323;-63
2024/01/30 07:32:58;;;;;;;0.68;0.68;;;3.30;99.90;;;;;;4400519;32;20748;-62
2024/01/30 07:35:23;;;;;;;0.50;0.50;;;3.40;99.90;;;;;;4390138;32;20089;-62
2024/01/30 07:37:49;;;;;;;0.70;0.70;;;3.40;99.90;;;;;;4392200;32;20073;-63
2024/01/30 07:40:14;;;;;;;4.50;2.15;;;3.40;99.90;;;;;;4392477;32;20470;-63
2024/01/30 07:42:40;;;;;;;0.70;0.70;;;3.40;99.90;;;;;;4388647;32;20074;-62
2024/01/30 07:45:05;;;;;;;1.08;0.95;;;3.30;99.90;;;;;;4394484;32;21129;-63
2024/01/30 07:47:31;;;;;;;0.65;0.65;;;3.40;99.90;;;;;;4395793;32;20102;-64
2024/01/30 07:49:56;;;;;;;0.60;0.60;;;3.40;99.90;;;;;;4400768;32;20251;-64
2024/01/30 07:52:22;;;;;;;0.70;0.70;;;3.40;99.90;;;;;;4403636;32;20081;-67
2024/01/30 07:54:47;;;;;;;0.82;0.82;;;3.40;99.90;;;;;;4402071;32;20101;-64
2024/01/30 07:57:13;;;;;;;0.40;0.40;;;3.40;99.90;;;;;;4395737;32;20194;-65
2024/01/30 07:59:38;;;;;;;0.70;0.70;;;3.50;99.90;;;;;;4399907;32;20113;-66
2024/01/30 08:02:04;;;;;;;2.05;1.52;;;3.60;99.90;;;;;;4403795;32;20089;-62
2024/01/30 08:04:29;;;;;;;0.40;0.40;;;3.60;99.90;;;;;;4399355;32;20431;-64
2024/01/30 08:06:55;;;;;;;1.33;1.23;;;3.70;99.90;;;;;;4394838;32;20489;-64
2024/01/30 08:09:20;;;;;;;0.50;0.50;;;3.70;99.90;;;;;;4392662;32;20081;-63
2024/01/30 08:11:46;;;;;;;1.37;0.95;;;3.80;99.90;;;;;;4397591;32;20691;-63
2024/01/30 08:14:13;;;;;;;2.53;0.70;;;3.90;99.90;;;;;;4400452;32;20105;-65
2024/01/30 08:16:39;;;;;;;0.65;0.65;;;4.00;99.90;;;;;;4401442;32;20557;-66
2024/01/30 08:19:04;;;;;;;0.55;0.55;;;4.10;99.90;;;;;;4398258;32;20093;-65
2024/01/30 08:21:30;;;;;;;0.88;0.85;;;4.10;99.90;;;;;;4395694;32;20089;-65
2024/01/30 08:23:55;;;;;;;0.95;0.93;;;4.10;99.90;;;;;;4392752;32;20077;-64
2024/01/30 08:26:21;;;;;;;1.40;1.15;;;4.10;99.90;;;;;;4396676;32;20081;-63
2024/01/30 08:28:46;;;;;;;0.40;0.40;;;4.20;99.90;;;;;;4386939;32;20089;-64
2024/01/30 08:31:12;;;;;;;0.52;0.52;;;4.30;99.90;;;;;;4391460;32;20078;-64
2024/01/30 08:33:37;;;;;;;1.55;1.17;;;4.40;99.90;;;;;;4393602;32;21126;-63
2024/01/30 08:36:03;;;;;;;0.50;0.50;;;4.60;99.90;;;;;;4392227;32;20455;-62
2024/01/30 08:38:28;;;;;;;0.70;0.70;;;4.70;99.90;;;;;;4384704;32;20332;-63
2024/01/30 08:40:55;;;;;;;1.20;1.10;;;4.80;99.90;;;;;;4393477;32;20132;-62
2024/01/30 08:43:20;;;;;;;9.52;1.62;;;4.80;99.90;;;;;;4389038;32;20077;-62
2024/01/30 08:45:46;;;;;;;50.60;1.45;;;4.80;99.90;;;;;;4403441;32;20267;-66
2024/01/30 08:48:11;;;;;;;0.85;0.68;;;4.90;99.90;;;;;;4385697;32;20102;-63
2024/01/30 08:50:37;;;;;;;0.80;0.80;;;4.90;99.90;;;;;;4383038;32;20402;-63
2024/01/30 08:53:04;;;;;;;0.68;0.68;;;4.90;99.90;;;;;;4366961;32;20101;-65
2024/01/30 08:55:29;;;;;;;1.15;1.05;;;5.00;99.90;;;;;;4382240;32;20106;-65
2024/01/30 08:57:55;;;;;;;2.05;1.45;;;5.00;99.90;;;;;;4380032;32;20092;-65
2024/01/30 09:00:20;;;;;;;2.00;1.00;;;5.00;99.90;;;;;;4383164;32;20163;-65
2024/01/30 09:02:46;;;;;;;8.07;2.58;;;5.20;99.90;;;;;;4385460;32;20096;-62
2024/01/30 09:05:11;;;;;;;0.98;0.60;;;5.20;99.90;;;;;;4374676;32;20125;-64
2024/01/30 09:07:37;;;;;;;0.50;0.50;;;5.30;99.90;;;;;;4352546;32;20077;-62
2024/01/30 09:10:03;;;;;;;0.62;0.62;;;5.30;99.90;;;;;;4386575;32;20286;-62
2024/01/30 09:12:28;;;;;;;0.50;0.50;;;5.40;99.90;;;;;;4373355;32;20105;-62
2024/01/30 09:14:54;;;;;;;0.90;0.90;;;5.50;99.90;;;;;;4387390;32;20078;-62
2024/01/30 09:17:20;;;;;;;1.05;0.98;;;5.50;99.90;;;;;;4386166;32;20103;-62
2024/01/30 09:19:46;;;;;;;1.15;1.02;;;5.50;99.90;;;;;;4390935;32;20081;-62
2024/01/30 09:22:11;;;;;;;0.50;0.47;;;5.50;99.90;;;;;;4380335;32;20972;-62
2024/01/30 09:24:37;;;;;;;4.57;1.48;;;5.50;99.90;;;;;;4377585;32;20484;-62
2024/01/30 09:27:03;;;;;;;0.60;0.60;;;5.50;99.90;;;;;;4376950;32;20893;-62
2024/01/30 09:29:28;;;;;;;1.65;1.23;;;5.50;99.90;;;;;;4379937;32;20084;-62
2024/01/30 09:31:54;;;;;;;0.57;0.57;;;5.60;99.90;;;;;;4383809;32;20089;-62
2024/01/30 09:34:20;;;;;;;0.60;0.60;;;5.70;99.90;;;;;;4384039;32;21049;-63
2024/01/30 09:36:45;;;;;;;0.50;0.50;;;5.70;99.90;;;;;;4390222;32;20093;-63
2024/01/30 09:39:11;;;;;;;6.93;1.75;;;5.80;99.90;;;;;;4389609;32;20149;-62
2024/01/30 09:41:48;;;;;;;1.12;0.98;;;5.90;99.90;;;;;;4384404;32;20182;-67
2024/01/30 09:44:16;;;;;;;0.65;0.65;;;5.90;99.90;;;;;;4384471;32;20384;-63
2024/01/30 09:46:42;;;;;;;0.95;0.93;;;6.00;99.90;;;;;;4380163;32;20727;-67
2024/01/30 09:49:09;;;;;;;0.62;0.62;;;6.10;99.90;;;;;;4387217;32;20147;-62
2024/01/30 09:51:35;;;;;;;3.45;0.98;;;6.10;99.90;;;;;;4382404;32;20100;-62
2024/01/30 09:54:02;;;;;;;13.32;1.45;;;6.30;99.90;;;;;;4381783;32;20805;-62
2024/01/30 09:56:28;;;;;;;6.15;1.77;;;6.40;99.90;;;;;;4383597;32;20089;-62
2024/01/30 09:58:54;;;;;;;0.70;0.70;;;6.50;99.90;;;;;;4383558;32;20127;-62
2024/01/30 10:01:20;;;;;;;2.15;1.73;;;6.50;99.90;;;;;;4372451;32;20098;-62
2024/01/30 10:03:45;;;;;;;0.60;0.60;;;6.60;99.90;;;;;;4378580;32;20583;-62
2024/01/30 10:06:11;;;;;;;0.62;0.62;;;6.80;99.90;;;;;;4382646;32;20106;-62
2024/01/30 10:08:37;;;;;;;0.98;0.82;;;6.80;99.90;;;;;;4378989;32;20111;-62
2024/01/30 10:11:03;;;;;;;0.75;0.75;;;6.80;99.90;;;;;;4363432;32;20749;-62
2024/01/30 10:13:29;;;;;;;3.83;0.82;;;6.90;99.90;;;;;;4370144;32;20085;-65
2024/01/30 10:15:55;;;;;;;0.60;0.57;;;6.90;99.90;;;;;;4378439;32;20431;-65
2024/01/30 10:18:22;;;;;;;0.60;0.60;;;6.90;99.90;;;;;;4381033;32;20198;-66
2024/01/30 10:20:48;;;;;;;0.43;0.43;;;6.90;99.90;;;;;;4378518;32;20330;-65
2024/01/30 10:23:13;;;;;;;8.15;0.93;;;7.00;99.90;;;;;;4373663;32;20506;-65
2024/01/30 10:25:39;;;;;;;0.88;0.88;;;7.10;99.90;;;;;;4377061;32;23086;-66
2024/01/30 10:28:04;;;;;;;1.33;1.15;;;7.20;99.90;;;;;;4364778;32;20089;-67
2024/01/30 10:30:30;;;;;;;0.57;0.57;;;7.10;99.90;;;;;;4374852;32;20105;-64
2024/01/30 10:32:55;;;;;;;2.45;1.02;;;7.20;99.90;;;;;;4374377;32;20089;-62
2024/01/30 10:35:21;;;;;;;0.85;0.80;;;7.20;99.90;;;;;;4374837;32;20962;-62
2024/01/30 10:37:48;;;;;;;0.77;0.77;;;7.20;99.90;;;;;;4376679;32;20157;-62
2024/01/30 10:40:15;;;;;;;1.27;1.00;;;7.30;99.90;;;;;;4388956;32;20159;-61
2024/01/30 10:42:45;;;;;;;1.33;1.20;;;7.30;99.90;;;;;;4363502;32;20109;-66
2024/01/30 10:45:13;;;;;;;0.60;0.60;;;7.20;99.90;;;;;;4368149;32;20102;-66
2024/01/30 10:47:43;;;;;;;0.52;0.52;;;7.30;99.90;;;;;;4379550;32;20101;-65
2024/01/30 10:50:10;;;;;;;0.73;0.73;;;7.30;99.90;;;;;;4365175;32;20529;-65
2024/01/30 10:52:36;;;;;;;1.25;0.85;;;7.40;99.90;;;;;;4371801;32;20099;-63
2024/01/30 10:55:06;;;;;;;1.00;0.85;;;7.40;99.90;;;;;;4383184;32;20086;-62
2024/01/30 10:57:35;;;;;;;0.93;0.90;;;7.40;99.90;;;;;;4385942;32;20081;-61
2024/01/30 11:00:05;;;;;;;1.70;1.12;;;7.50;99.90;;;;;;4387711;32;20106;-62
2024/01/30 11:02:31;;;;;;;0.68;0.68;;;7.50;99.90;;;;;;4376171;32;20884;-62
2024/01/30 11:04:58;;;;;;;0.93;0.93;;;7.60;99.90;;;;;;4393944;32;20090;-62
2024/01/30 11:07:26;;;;;;;1.02;0.75;;;7.60;99.90;;;;;;4389782;32;20629;-62
2024/01/30 11:10:00;;;;;;;1.25;0.80;;;7.60;99.90;;;;;;4387065;32;20177;-62
2024/01/30 11:12:26;;;;;;;0.47;0.47;;;7.60;99.90;;;;;;4366093;32;20620;-62
2024/01/30 11:15:10;;;;;;;0.80;0.80;;;7.60;99.90;;;;;;4386445;32;20110;-62
2024/01/30 11:17:52;;;;;;;0.60;0.60;;;7.60;99.90;;;;;;4359596;32;20168;-62
2024/01/30 11:20:35;;;;;;;0.80;0.70;;;7.70;99.90;;;;;;4368165;32;20442;-67
2024/01/30 11:23:05;;;;;;;1.55;1.37;;;7.70;99.90;;;;;;4381566;32;20117;-62
2024/01/30 11:25:32;;;;;;;0.70;0.70;;;7.80;99.90;;;;;;4379658;32;20090;-62
2024/01/30 11:27:57;;;;;;;0.70;0.60;;;7.80;99.90;;;;;;4386077;32;20093;-62
2024/01/30 11:30:28;;;;;;;1.48;1.12;;;7.80;99.90;;;;;;4382634;32;20144;-65
2024/01/30 11:33:04;;;;;;;0.60;0.60;;;7.80;99.90;;;;;;4388549;32;20085;-65
2024/01/30 11:35:32;;;;;;;3.25;0.88;;;7.90;99.90;;;;;;4382057;32;20335;-65
2024/01/30 11:37:59;;;;;;;1.15;1.05;;;7.90;99.90;;;;;;4379405;32;21545;-65
2024/01/30 11:40:29;;;;;;;1.08;0.65;;;7.90;99.90;;;;;;4382846;32;20168;-64
2024/01/30 11:42:56;;;;;;;0.52;0.52;;;7.90;99.90;;;;;;4395869;32;20794;-64
2024/01/30 11:45:21;;;;;;;0.40;0.40;;;7.90;99.90;;;;;;4378390;32;20110;-64
2024/01/30 11:47:47;;;;;;;0.77;0.65;;;8.00;99.90;;;;;;4399359;32;20086;-63
2024/01/30 11:50:13;;;;;;;0.45;0.45;;;8.10;99.90;;;;;;4400278;32;20678;-63
2024/01/30 11:52:39;;;;;;;0.77;0.73;;;8.10;99.90;;;;;;4391245;32;86467;-64
2024/01/30 11:55:06;;;;;;;0.82;0.82;;;8.20;99.90;;;;;;4391460;32;20077;-64
2024/01/30 11:57:31;;;;;;;4.50;1.58;;;8.20;99.90;;;;;;4387528;32;20620;-63
2024/01/30 11:59:57;;;;;;;0.90;0.90;;;8.20;99.90;;;;;;4385540;32;20114;-64
2024/01/30 12:02:22;;;;;;;2.87;1.15;;;8.30;99.90;;;;;;4387155;32;21049;-64
2024/01/30 12:04:48;;;;;;;0.60;0.60;;;8.30;99.90;;;;;;4395304;32;20533;-65
2024/01/30 12:07:15;;;;;;;0.77;0.73;;;8.40;99.90;;;;;;4394749;32;20558;-64
2024/01/30 12:09:42;;;;;;;0.50;0.50;;;8.50;99.90;;;;;;4389868;32;20151;-64
2024/01/30 12:12:11;;;;;;;1.00;0.73;;;8.60;99.90;;;;;;4388356;32;20097;-63
2024/01/30 12:14:38;;;;;;;8.43;1.65;;;8.50;99.90;;;;;;4398463;32;20065;-65
2024/01/30 12:17:03;;;;;;;20.58;1.08;;;8.50;99.90;;;;;;4376735;32;20177;-64
2024/01/30 12:19:29;;;;;;;12.07;1.33;;;8.50;99.90;;;;;;4392606;32;20118;-64
2024/01/30 12:21:56;;;;;;;1.65;1.12;;;8.60;99.90;;;;;;4394043;32;20156;-64
2024/01/30 12:24:22;;;;;;;0.60;0.60;;;8.70;99.90;;;;;;4386714;32;20122;-67
2024/01/30 12:26:48;;;;;;;0.40;0.40;;;8.70;99.90;;;;;;4368136;32;25053;-63
2024/01/30 12:29:14;;;;;;;0.60;0.60;;;8.70;99.90;;;;;;4377157;32;20089;-62
2024/01/30 12:31:42;;;;;;;1.80;0.80;;;8.70;99.90;;;;;;4392065;32;20200;-63
2024/01/30 12:34:07;;;;;;;0.82;0.77;;;8.70;99.90;;;;;;4396913;32;20077;-63
2024/01/30 12:36:34;;;;;;;0.70;0.62;;;8.80;99.90;;;;;;4395341;32;20128;-64
2024/01/30 12:39:00;;;;;;;1.37;0.70;;;8.70;99.90;;;;;;4394336;32;20185;-66
2024/01/30 12:41:28;;;;;;;27.00;1.55;;;8.80;99.90;;;;;;4392275;32;20078;-64
2024/01/30 12:43:54;;;;;;;9.32;0.95;;;8.80;99.90;;;;;;4387735;32;20574;-63
2024/01/30 12:46:19;;;;;;;0.70;0.70;;;8.80;99.90;;;;;;4393091;32;20062;-63
2024/01/30 12:48:45;;;;;;;9.00;1.00;;;9.00;99.90;;;;;;4382295;32;21003;-64
2024/01/30 12:51:11;;;;;;;0.50;0.50;;;9.10;99.90;;;;;;4393282;32;20201;-63